Batesville, MS (38606)

7:05 PM CDT on August 01, 2014 (GMT -0500)
BHQ (KMSCOMO2) Elev 367 ft | 34.52 °N, 89.94 °W | Change Station

Current weather conditions updated 3 minutes ago

Clear
Clear
80.4 °F
Feels Like 84 °F
N
0.0
Wind Variable Wind from East

Tomorrow is forecast to be nearly the same temperature as today. Partly cloudy, chance of a thunderstorm.

Today
High -- | Low -- °F
--% Chance of Precip.
Yesterday
High -- | Low -- °F
Precip. -- in
6:10 AM 8:01 PM
Waxing Crescent, 30% visible
Pressure 30.02 in
Visibility 10.0 miles
Clouds Clear
Heat Index 84 °F
Dew Point 71 °F
Humidity 73%
Rainfall 0.00 in
Snow Depth Not available.
UV 1 out of 12
Pollen 6.60 out of 12
Air Quality Not available.
Flu Activity Not available.
METAR KUOX 012335Z AUTO 00000KT 10SM CLR 26/18 A3002 RMK AO2

More Conditions Fewer Conditions

Pressure 30.02 in
Visibility 10.0 miles
Clouds Clear
Heat Index 84 °F
Dew Point 71 °F
Humidity 73%
Rainfall 0.00 in
Snow Depth Not available.
UV 1 out of 12
Pollen 6.60 out of 12
Air Quality Not available.
Flu Activity Not available.
METAR KUOX 012335Z AUTO 00000KT 10SM CLR 26/18 A3002 RMK AO2

More Conditions Fewer Conditions

10-Day Weather Forecast

Almanac

Astronomy

Aug. 01, 2014 Rise Set
Actual Time 6:10 AM CDT 8:01 PM CDT
Civil Twilight 5:43 AM CDT 8:28 PM CDT
Nautical Twilight 5:09 AM CDT 9:01 PM CDT
Astronomical Twilight 4:34 AM CDT 9:37 PM CDT
Moon 11:18 AM CDT (8/1) 11:02 PM CDT (8/1)
Length of Visible Light 14h 45m
Length of Day
13h 50m
Tomorrow will be 1m 36s shorter.
Waxing Crescent, 30% of the Moon is Illuminated
Today
Waxing Crescent
Aug 3
First Quarter
Aug 10
Full
Aug 17
Last Quarter
Aug 25
New

Today's Extremes

State Highs State Lows

Community

WunderPhotos

Upload Photos

1,739,763 photos uploaded!

Nearby

Snow Depth

Station Depth Elevation
No new snow has been reported.

Earthquake Activity

City Distance Mag. Time & Date
No recent earthquake activity has been reported nearby.
Minimum magnitude displayed is 2.5.

Coastal Water Temperatures

Place Temperature
No Stations Reporting

Nearby Weather Stations

Station Location Temp. Heat Index Dew Point Humidity Wind Precip. Elev Updated Type
MesoWest GOODWIN CK PASTURE , Pope, MS 82 °F 84 °F 66 °F 59% NE  at  3 mph 0.00 in / hr 319 ft 6:00 PM CDT MADIS
BHQ, Como, MS 80.4 °F 84 °F 71 °F 73% East  at  0.0 mph - / hr 367 ft 7:01 PM CDT Normal

Show More Stations Show Fewer Stations